Time;durP1;ratioP1;P1;durP2;ratioP2;P2;SDS_P1;SDS_P2;PMS_P1;PMS_P2;Temp;Humidity;BMP_temperature;BMP_pressure;BME280_temperature;BME280_humidity;BME280_pressure;Samples;Min_cycle;Max_cycle;Signal;HPM_P1;HPM_P2
2023/08/21 00:00:18;;;;;;;6.22;1.60;;;18.70;73.50;;;;;;5017207;28;20087;-70
2023/08/21 00:02:44;;;;;;;3.92;1.65;;;18.70;73.60;;;;;;5015083;28;20373;-69
2023/08/21 00:05:10;;;;;;;2.55;1.60;;;18.60;73.50;;;;;;5012257;28;20362;-68
2023/08/21 00:07:37;;;;;;;6.15;2.00;;;18.60;73.50;;;;;;5018166;28;20675;-69
2023/08/21 00:10:04;;;;;;;1.90;1.30;;;18.60;73.60;;;;;;5013019;28;20033;-68
2023/08/21 00:12:30;;;;;;;2.85;1.67;;;18.60;73.70;;;;;;5015113;28;20491;-71
2023/08/21 00:14:55;;;;;;;3.65;1.52;;;18.50;73.50;;;;;;5013866;28;20310;-69
2023/08/21 00:17:21;;;;;;;2.95;1.70;;;18.50;73.50;;;;;;5014312;28;20550;-67
2023/08/21 00:19:47;;;;;;;2.90;1.40;;;18.50;73.70;;;;;;5011486;28;20036;-67
2023/08/21 00:22:14;;;;;;;3.55;1.90;;;18.50;73.60;;;;;;5019182;28;20025;-71
2023/08/21 00:24:39;;;;;;;1.73;1.30;;;18.40;73.50;;;;;;5014991;28;20474;-69
2023/08/21 00:27:05;;;;;;;4.53;1.38;;;18.40;73.50;;;;;;5013992;28;20091;-69
2023/08/21 00:29:31;;;;;;;2.22;1.15;;;18.40;73.60;;;;;;5014049;28;20041;-69
2023/08/21 00:31:57;;;;;;;2.28;1.52;;;18.40;73.60;;;;;;5014835;28;20382;-69
2023/08/21 00:34:23;;;;;;;3.00;1.65;;;18.40;73.60;;;;;;5014989;28;20035;-69
2023/08/21 00:36:49;;;;;;;2.35;1.67;;;18.40;73.60;;;;;;5005304;28;20026;-68
2023/08/21 00:39:15;;;;;;;1.88;1.30;;;18.40;73.70;;;;;;5012896;28;20075;-69
2023/08/21 00:41:42;;;;;;;2.63;1.52;;;18.30;73.60;;;;;;5015820;28;20044;-68
2023/08/21 00:44:08;;;;;;;3.50;1.48;;;18.30;73.60;;;;;;5012655;28;20589;-68
2023/08/21 00:46:35;;;;;;;3.80;1.30;;;18.30;73.60;;;;;;5017837;28;20069;-69
2023/08/21 00:49:02;;;;;;;2.53;1.58;;;18.30;73.70;;;;;;5015155;28;20497;-69
2023/08/21 00:51:28;;;;;;;3.08;1.73;;;18.30;73.70;;;;;;5015767;28;20450;-69
2023/08/21 00:53:55;;;;;;;5.75;1.58;;;18.30;73.70;;;;;;5012814;28;20030;-68
2023/08/21 00:56:21;;;;;;;3.03;1.50;;;18.30;73.70;;;;;;5022467;28;20473;-68
2023/08/21 00:58:47;;;;;;;3.78;1.52;;;18.30;73.80;;;;;;5017528;28;20077;-68
2023/08/21 01:01:15;;;;;;;4.47;1.77;;;18.30;73.80;;;;;;5014838;28;20409;-69
2023/08/21 01:03:41;;;;;;;5.53;1.60;;;18.30;73.90;;;;;;5012851;28;20503;-69
2023/08/21 01:06:08;;;;;;;2.83;1.60;;;18.30;73.90;;;;;;5014648;28;20037;-69
2023/08/21 01:08:55;;;;;;;2.38;1.70;;;18.30;73.90;;;;;;5000639;28;20145;-69
2023/08/21 01:11:31;;;;;;;2.78;1.20;;;18.30;74.00;;;;;;5001207;28;20139;-70
2023/08/21 01:14:04;;;;;;;3.47;1.88;;;18.30;74.00;;;;;;5015993;28;20711;-70
2023/08/21 01:16:32;;;;;;;2.53;1.73;;;18.20;73.90;;;;;;5018125;28;20033;-70
2023/08/21 01:18:59;;;;;;;2.85;1.38;;;18.30;74.00;;;;;;5016013;28;20727;-68
2023/08/21 01:21:27;;;;;;;3.92;1.63;;;18.30;74.10;;;;;;5020183;28;20037;-69
2023/08/21 01:23:53;;;;;;;3.75;1.80;;;18.20;73.90;;;;;;5017314;28;20417;-68
2023/08/21 01:26:19;;;;;;;3.25;1.92;;;18.20;73.90;;;;;;5023299;28;20108;-68
2023/08/21 01:28:49;;;;;;;4.70;1.45;;;18.20;74.00;;;;;;5001447;28;20036;-70
2023/08/21 01:31:26;;;;;;;4.30;2.28;;;18.20;74.00;;;;;;5011015;28;20026;-70
2023/08/21 01:33:57;;;;;;;2.70;1.40;;;18.20;74.10;;;;;;5006318;28;20029;-69
2023/08/21 01:36:25;;;;;;;4.43;1.83;;;18.20;74.10;;;;;;5010165;28;20030;-68
2023/08/21 01:38:53;;;;;;;4.15;1.88;;;18.10;73.90;;;;;;5013906;28;20107;-69
2023/08/21 01:41:24;;;;;;;6.40;2.58;;;18.10;74.00;;;;;;5013298;28;20100;-69
2023/08/21 01:43:51;;;;;;;4.88;2.22;;;18.10;74.00;;;;;;5012710;28;20056;-69
2023/08/21 01:46:17;;;;;;;3.30;2.05;;;18.10;74.00;;;;;;5027757;28;20055;-68
2023/08/21 01:48:43;;;;;;;5.75;1.70;;;18.10;74.00;;;;;;5025694;28;20034;-68
2023/08/21 01:51:10;;;;;;;3.00;1.65;;;18.00;73.90;;;;;;5021337;28;20044;-71
2023/08/21 01:53:35;;;;;;;3.35;1.95;;;18.00;73.90;;;;;;5013876;28;20033;-69
2023/08/21 01:56:01;;;;;;;2.20;1.75;;;18.00;73.90;;;;;;5001161;28;20052;-69
2023/08/21 01:58:27;;;;;;;4.10;2.28;;;18.00;74.00;;;;;;5017105;28;20037;-72
2023/08/21 02:00:54;;;;;;;5.63;1.98;;;17.90;73.80;;;;;;5016373;28;20041;-69
2023/08/21 02:03:20;;;;;;;4.35;2.13;;;17.90;73.90;;;;;;5016199;28;20041;-72
2023/08/21 02:05:46;;;;;;;2.33;1.75;;;17.80;73.70;;;;;;5017656;28;20034;-69
2023/08/21 02:08:13;;;;;;;4.70;1.88;;;17.80;73.80;;;;;;5023149;28;20116;-68
2023/08/21 02:10:50;;;;;;;4.45;2.35;;;17.80;73.80;;;;;;5011006;28;20022;-70
2023/08/21 02:13:16;;;;;;;3.50;1.80;;;17.80;73.90;;;;;;5019330;28;20029;-69
2023/08/21 02:15:42;;;;;;;4.38;2.08;;;17.70;73.70;;;;;;5016982;28;20128;-68
2023/08/21 02:18:08;;;;;;;3.75;1.83;;;17.70;73.70;;;;;;5015672;28;20120;-69
2023/08/21 02:20:34;;;;;;;3.72;2.67;;;17.60;73.60;;;;;;5021241;28;20034;-66
2023/08/21 02:23:02;;;;;;;3.08;2.00;;;17.60;73.70;;;;;;5021233;28;20037;-67
2023/08/21 02:25:30;;;;;;;3.30;2.13;;;17.60;73.70;;;;;;5010101;28;20092;-68
2023/08/21 02:27:56;;;;;;;4.55;1.90;;;17.50;73.60;;;;;;5013450;28;20038;-73
2023/08/21 02:30:25;;;;;;;3.03;1.83;;;17.50;73.60;;;;;;5009858;28;20478;-67
2023/08/21 02:32:52;;;;;;;2.67;1.85;;;17.50;73.70;;;;;;5021657;28;20022;-70
2023/08/21 02:35:20;;;;;;;8.27;2.00;;;17.40;73.60;;;;;;5015739;28;20489;-68
2023/08/21 02:37:46;;;;;;;4.55;2.58;;;17.40;74.10;;;;;;5019584;28;20052;-69
2023/08/21 02:40:11;;;;;;;4.47;2.00;;;17.40;73.60;;;;;;5016289;28;20029;-70
2023/08/21 02:42:38;;;;;;;3.75;2.05;;;17.30;73.50;;;;;;5022437;28;20179;-70
2023/08/21 02:45:08;;;;;;;3.15;1.85;;;17.30;73.50;;;;;;5014831;28;20053;-73
2023/08/21 02:47:37;;;;;;;2.10;1.75;;;17.30;73.60;;;;;;5035259;28;20138;-71
2023/08/21 02:50:08;;;;;;;3.58;2.03;;;17.20;73.40;;;;;;5015717;28;20413;-70
2023/08/21 02:52:35;;;;;;;4.30;1.92;;;17.20;73.50;;;;;;5018996;28;20207;-71
2023/08/21 02:55:02;;;;;;;4.45;1.77;;;17.20;73.50;;;;;;5016181;28;20061;-71
2023/08/21 02:57:29;;;;;;;4.65;2.13;;;17.10;73.30;;;;;;5020909;28;20048;-71
2023/08/21 02:59:55;;;;;;;4.07;1.88;;;17.20;73.50;;;;;;5012606;28;20033;-74
2023/08/21 03:02:22;;;;;;;4.43;1.92;;;17.10;73.30;;;;;;5019246;28;20515;-69
2023/08/21 03:04:48;;;;;;;3.33;1.58;;;17.10;73.40;;;;;;5014683;28;20143;-68
2023/08/21 03:07:15;;;;;;;2.75;1.42;;;17.10;73.40;;;;;;5017293;28;20183;-68
2023/08/21 03:09:41;;;;;;;3.30;1.55;;;17.00;73.20;;;;;;5014870;28;20482;-68
2023/08/21 03:12:08;;;;;;;3.30;1.92;;;17.00;73.30;;;;;;5002937;28;20026;-70
2023/08/21 03:14:34;;;;;;;2.70;1.80;;;16.90;73.10;;;;;;5021798;28;20457;-70
2023/08/21 03:17:00;;;;;;;3.40;1.85;;;16.90;73.20;;;;;;5019163;28;20112;-69
2023/08/21 03:19:27;;;;;;;2.10;1.90;;;16.90;73.20;;;;;;5021458;28;20029;-67
2023/08/21 03:21:53;;;;;;;2.53;1.55;;;16.90;73.30;;;;;;5012928;28;20193;-67
2023/08/21 03:24:20;;;;;;;3.03;2.25;;;16.90;73.30;;;;;;5009183;28;20494;-68
2023/08/21 03:26:46;;;;;;;3.33;1.70;;;16.90;73.30;;;;;;5018594;28;20064;-67
2023/08/21 03:29:12;;;;;;;3.70;1.83;;;16.80;73.20;;;;;;5020416;28;20033;-70
2023/08/21 03:31:37;;;;;;;2.10;1.50;;;16.80;73.20;;;;;;5014164;28;20108;-71
2023/08/21 03:34:04;;;;;;;3.67;2.03;;;16.80;73.20;;;;;;5018065;28;20515;-69
2023/08/21 03:36:33;;;;;;;2.10;1.42;;;16.80;73.20;;;;;;5018419;28;20315;-69
2023/08/21 03:39:03;;;;;;;4.45;1.30;;;16.80;73.20;;;;;;5018134;28;20022;-71
2023/08/21 03:41:32;;;;;;;2.65;1.70;;;16.80;73.20;;;;;;5032107;28;20079;-71
2023/08/21 03:43:59;;;;;;;2.00;1.25;;;16.70;73.10;;;;;;5004189;28;20573;-73
2023/08/21 03:46:25;;;;;;;2.92;1.83;;;16.70;73.10;;;;;;5014497;28;20034;-68
2023/08/21 03:48:54;;;;;;;1.95;1.60;;;16.70;73.10;;;;;;5013357;28;20033;-71
2023/08/21 03:51:20;;;;;;;5.25;1.65;;;16.60;73.00;;;;;;5015091;28;20049;-69
2023/08/21 03:53:47;;;;;;;2.65;1.50;;;16.60;73.00;;;;;;5014684;28;20034;-71
2023/08/21 03:56:14;;;;;;;3.20;1.90;;;16.60;73.00;;;;;;5017208;28;20033;-72
2023/08/21 03:58:44;;;;;;;2.97;1.58;;;16.60;73.00;;;;;;5018237;28;20379;-73
2023/08/21 04:01:11;;;;;;;1.75;1.60;;;16.60;73.10;;;;;;5014420;28;20032;-70
2023/08/21 04:03:37;;;;;;;2.75;1.60;;;16.50;72.90;;;;;;5014519;28;20042;-71
2023/08/21 04:06:03;;;;;;;3.38;1.52;;;16.50;73.00;;;;;;5017685;28;20029;-72
2023/08/21 04:08:29;;;;;;;2.95;1.50;;;16.50;73.00;;;;;;5016852;28;20366;-70
2023/08/21 04:10:59;;;;;;;2.88;1.55;;;16.50;73.10;;;;;;5011101;28;20218;-68
2023/08/21 04:13:25;;;;;;;3.08;2.20;;;16.50;73.10;;;;;;5014304;28;20025;-71
2023/08/21 04:15:53;;;;;;;3.55;1.60;;;16.50;73.10;;;;;;5004236;28;20037;-72
2023/08/21 04:18:20;;;;;;;8.98;3.53;;;16.50;73.10;;;;;;5015499;28;20381;-68
2023/08/21 04:20:48;;;;;;;3.35;1.95;;;16.50;73.20;;;;;;5014728;28;20506;-68
2023/08/21 04:23:14;;;;;;;2.17;1.60;;;16.50;73.20;;;;;;5013464;28;20108;-68
2023/08/21 04:25:40;;;;;;;2.92;2.28;;;16.50;73.10;;;;;;5009592;28;20029;-69
2023/08/21 04:28:07;;;;;;;2.88;1.90;;;16.40;73.00;;;;;;5013092;28;20037;-68
2023/08/21 04:30:33;;;;;;;2.88;1.50;;;16.40;73.00;;;;;;5009769;28;20034;-68
2023/08/21 04:33:00;;;;;;;4.32;1.90;;;16.40;73.00;;;;;;5018222;28;20025;-71
2023/08/21 04:35:26;;;;;;;3.53;1.90;;;16.40;73.00;;;;;;5011193;28;20033;-69
2023/08/21 04:37:53;;;;;;;2.20;1.52;;;16.40;73.10;;;;;;5018302;28;20445;-67
2023/08/21 04:40:24;;;;;;;2.65;1.65;;;16.30;72.90;;;;;;5018452;28;20108;-69
2023/08/21 04:42:51;;;;;;;2.75;1.80;;;16.30;72.90;;;;;;5014454;28;20041;-68
2023/08/21 04:45:19;;;;;;;3.10;1.48;;;16.30;73.00;;;;;;5003709;28;20835;-68
2023/08/21 04:47:45;;;;;;;1.67;1.50;;;16.30;73.00;;;;;;5017651;28;20029;-67
2023/08/21 04:50:12;;;;;;;5.88;2.53;;;16.20;72.90;;;;;;5018537;28;20099;-67
2023/08/21 04:52:38;;;;;;;4.80;2.03;;;16.30;73.10;;;;;;5012426;28;20037;-69
2023/08/21 04:55:05;;;;;;;3.15;1.92;;;16.20;72.90;;;;;;5013150;28;20560;-66
2023/08/21 04:57:33;;;;;;;1.95;1.85;;;16.20;73.00;;;;;;5014193;28;20502;-67
2023/08/21 05:00:00;;;;;;;3.40;1.70;;;16.20;73.00;;;;;;5012094;28;20041;-68
2023/08/21 05:02:34;;;;;;;4.97;2.83;;;16.20;73.10;;;;;;5011049;28;20045;-70
2023/08/21 05:05:01;;;;;;;4.30;2.08;;;16.20;73.00;;;;;;4993571;28;20520;-70
2023/08/21 05:07:28;;;;;;;1.67;1.50;;;16.20;73.10;;;;;;5010622;28;20533;-70
2023/08/21 05:09:54;;;;;;;1.80;1.70;;;16.20;73.10;;;;;;5008877;28;20057;-70
2023/08/21 05:12:21;;;;;;;4.60;2.10;;;16.10;72.90;;;;;;5009672;28;20485;-69
2023/08/21 05:14:48;;;;;;;2.58;2.13;;;16.10;72.90;;;;;;4996569;28;20437;-69
2023/08/21 05:17:13;;;;;;;3.58;1.90;;;16.10;72.90;;;;;;5009603;28;20029;-69
2023/08/21 05:19:40;;;;;;;5.13;1.92;;;16.10;72.90;;;;;;5013304;28;20519;-68
2023/08/21 05:22:07;;;;;;;2.30;1.65;;;16.10;72.90;;;;;;5009009;28;20029;-67
2023/08/21 05:24:33;;;;;;;1.83;1.45;;;16.10;72.90;;;;;;5004881;28;20120;-69
2023/08/21 05:27:04;;;;;;;3.40;2.28;;;16.10;72.90;;;;;;5011010;28;20029;-68
2023/08/21 05:29:30;;;;;;;1.77;1.60;;;16.10;72.90;;;;;;5013657;28;20606;-68
2023/08/21 05:31:57;;;;;;;3.33;1.70;;;16.10;72.90;;;;;;5012932;28;20025;-68
2023/08/21 05:34:25;;;;;;;3.45;1.95;;;16.10;72.90;;;;;;5014647;28;20449;-69
2023/08/21 05:36:54;;;;;;;2.70;2.03;;;16.10;72.90;;;;;;5016141;28;20068;-69
2023/08/21 05:39:21;;;;;;;2.40;1.75;;;16.10;72.90;;;;;;5015008;28;20022;-69
2023/08/21 05:41:48;;;;;;;2.67;1.90;;;16.10;72.90;;;;;;5015497;28;20555;-68
2023/08/21 05:44:15;;;;;;;4.03;1.77;;;16.10;72.90;;;;;;5009582;28;20037;-70
2023/08/21 05:46:41;;;;;;;5.80;2.67;;;16.10;72.90;;;;;;5007480;28;20082;-68
2023/08/21 05:49:07;;;;;;;6.55;3.10;;;16.10;73.20;;;;;;5016305;28;20026;-69
2023/08/21 05:51:34;;;;;;;3.50;2.65;;;16.20;74.10;;;;;;5015711;28;20064;-69
2023/08/21 05:54:00;;;;;;;3.85;2.63;;;16.30;74.80;;;;;;5013755;28;20025;-69
2023/08/21 05:56:26;;;;;;;4.25;2.55;;;16.50;75.60;;;;;;5011263;28;20426;-68
2023/08/21 05:58:52;;;;;;;6.53;3.63;;;16.60;76.10;;;;;;5009701;28;20103;-68
2023/08/21 06:01:19;;;;;;;2.85;2.53;;;16.70;77.20;;;;;;5008585;28;20042;-69
2023/08/21 06:03:45;;;;;;;4.40;2.50;;;16.90;77.20;;;;;;5032320;28;20084;-68
2023/08/21 06:06:31;;;;;;;4.20;2.47;;;17.00;77.60;;;;;;5015223;28;20112;-68
2023/08/21 06:08:58;;;;;;;3.40;2.42;;;17.20;78.10;;;;;;5007673;28;20437;-68
2023/08/21 06:11:24;;;;;;;10.00;4.70;;;17.30;78.50;;;;;;5005862;28;20044;-68
2023/08/21 06:13:51;;;;;;;8.82;4.70;;;17.40;78.80;;;;;;5005475;28;20073;-68
2023/08/21 06:16:17;;;;;;;7.25;3.55;;;17.50;79.10;;;;;;5003162;28;20531;-68
2023/08/21 06:18:45;;;;;;;10.15;2.90;;;17.60;79.20;;;;;;5004534;28;20508;-68
2023/08/21 06:21:11;;;;;;;6.30;2.30;;;17.70;79.40;;;;;;5013366;28;20121;-68
2023/08/21 06:23:37;;;;;;;3.10;2.17;;;17.80;79.60;;;;;;5008498;28;20473;-69
2023/08/21 06:26:04;;;;;;;6.13;3.17;;;17.90;79.80;;;;;;5006414;28;20021;-69
2023/08/21 06:28:30;;;;;;;4.10;2.42;;;18.00;79.90;;;;;;5009338;28;20128;-70
2023/08/21 06:30:58;;;;;;;5.20;2.78;;;18.10;80.00;;;;;;5010973;28;20109;-69
2023/08/21 06:33:24;;;;;;;4.78;2.75;;;18.20;80.10;;;;;;5010455;28;20037;-72
2023/08/21 06:35:50;;;;;;;2.92;2.17;;;18.30;80.20;;;;;;5008481;28;20030;-68
2023/08/21 06:38:16;;;;;;;2.97;2.10;;;18.40;80.20;;;;;;5013086;28;20060;-69
2023/08/21 06:40:45;;;;;;;3.33;2.75;;;18.50;80.20;;;;;;4996069;28;20037;-71
2023/08/21 06:43:12;;;;;;;3.15;1.50;;;18.50;79.90;;;;;;5004848;28;20155;-69
2023/08/21 06:45:43;;;;;;;2.90;1.67;;;18.60;79.90;;;;;;5009292;28;20029;-69
2023/08/21 06:48:09;;;;;;;3.10;1.83;;;18.70;79.70;;;;;;5006601;28;20087;-71
2023/08/21 06:50:38;;;;;;;3.90;2.65;;;18.70;79.50;;;;;;5010185;28;20061;-68
2023/08/21 06:53:05;;;;;;;2.10;1.88;;;18.80;79.40;;;;;;5006754;28;20035;-70
2023/08/21 06:55:32;;;;;;;4.07;2.00;;;18.90;79.30;;;;;;5005698;28;20038;-69
2023/08/21 06:57:58;;;;;;;7.80;2.88;;;18.90;79.10;;;;;;5008298;28;20454;-69
2023/08/21 07:00:24;;;;;;;4.95;1.90;;;19.00;79.10;;;;;;5012256;28;20121;-72
2023/08/21 07:02:51;;;;;;;3.90;1.50;;;19.00;78.90;;;;;;5012475;28;20044;-70
2023/08/21 07:05:17;;;;;;;5.47;1.80;;;19.10;78.90;;;;;;5010918;28;20033;-70
2023/08/21 07:07:44;;;;;;;5.18;2.00;;;19.10;78.60;;;;;;5010496;28;20241;-70
2023/08/21 07:10:10;;;;;;;5.10;1.77;;;19.20;78.60;;;;;;5003011;28;20022;-69
2023/08/21 07:12:37;;;;;;;2.40;1.45;;;19.20;78.40;;;;;;5012825;28;20042;-70
2023/08/21 07:15:04;;;;;;;3.45;1.85;;;19.20;78.20;;;;;;5008540;28;20439;-71
2023/08/21 07:17:31;;;;;;;4.07;2.17;;;19.30;78.10;;;;;;5007813;28;20152;-69
2023/08/21 07:19:57;;;;;;;5.78;1.92;;;19.40;78.00;;;;;;5012966;28;20286;-69
2023/08/21 07:22:23;;;;;;;3.60;1.70;;;19.50;78.00;;;;;;5014390;28;20077;-70
2023/08/21 07:24:50;;;;;;;3.20;1.98;;;19.60;77.90;;;;;;5006831;28;20116;-70
2023/08/21 07:27:16;;;;;;;4.18;1.50;;;19.70;77.90;;;;;;5010648;28;20489;-70
2023/08/21 07:29:43;;;;;;;3.10;1.45;;;20.00;78.20;;;;;;5012238;28;20477;-70
2023/08/21 07:32:09;;;;;;;4.85;1.50;;;20.40;77.90;;;;;;5010287;28;20291;-72
2023/08/21 07:34:39;;;;;;;2.58;1.90;;;20.70;77.30;;;;;;5008356;28;20506;-70
2023/08/21 07:37:08;;;;;;;2.97;1.33;;;20.90;76.70;;;;;;5015530;28;20378;-70
2023/08/21 07:39:35;;;;;;;4.43;1.60;;;21.10;76.40;;;;;;5007922;28;20045;-70
2023/08/21 07:42:02;;;;;;;3.10;1.63;;;21.10;76.00;;;;;;5006119;28;20041;-69
2023/08/21 07:44:30;;;;;;;4.55;1.45;;;21.10;75.80;;;;;;5006506;28;20135;-69
2023/08/21 07:46:56;;;;;;;3.17;1.52;;;21.10;75.80;;;;;;5012235;28;20059;-71
2023/08/21 07:49:26;;;;;;;3.75;1.33;;;21.20;75.80;;;;;;5002280;28;20053;-70
2023/08/21 07:51:53;;;;;;;4.57;1.40;;;21.30;75.60;;;;;;5004746;28;20087;-69
2023/08/21 07:54:20;;;;;;;2.00;1.50;;;21.40;75.50;;;;;;5005949;28;20182;-71
2023/08/21 07:56:46;;;;;;;3.38;1.65;;;21.50;75.30;;;;;;5004230;28;20025;-70
2023/08/21 07:59:14;;;;;;;4.03;1.50;;;21.60;75.10;;;;;;5006804;28;20034;-70
2023/08/21 08:01:41;;;;;;;2.97;1.27;;;21.70;75.00;;;;;;5004134;28;20029;-70
2023/08/21 08:04:08;;;;;;;3.22;1.40;;;21.70;74.80;;;;;;5010071;28;20042;-70
2023/08/21 08:06:35;;;;;;;4.28;1.63;;;21.80;74.80;;;;;;4993939;28;20068;-69
2023/08/21 08:09:07;;;;;;;2.55;1.17;;;21.80;74.70;;;;;;5001235;28;20044;-70
2023/08/21 08:11:34;;;;;;;3.58;1.20;;;21.80;74.60;;;;;;5002246;28;20056;-69
2023/08/21 08:14:01;;;;;;;4.00;1.20;;;21.90;74.60;;;;;;5006252;28;20035;-69
2023/08/21 08:16:27;;;;;;;2.72;1.40;;;21.90;74.40;;;;;;5013368;28;20048;-69
2023/08/21 08:18:53;;;;;;;6.53;1.42;;;22.00;74.30;;;;;;5003340;28;20037;-69
2023/08/21 08:21:20;;;;;;;2.22;1.40;;;22.10;74.80;;;;;;5003622;28;20026;-70
2023/08/21 08:23:47;;;;;;;1.95;1.13;;;22.10;74.00;;;;;;5009241;28;20048;-71
2023/08/21 08:26:13;;;;;;;4.85;1.15;;;22.20;73.80;;;;;;5013336;28;20362;-71
2023/08/21 08:28:43;;;;;;;1.73;1.02;;;22.30;73.60;;;;;;5011852;28;20064;-69
2023/08/21 08:31:17;;;;;;;1.92;1.15;;;22.40;73.50;;;;;;5003946;28;20033;-72
2023/08/21 08:33:44;;;;;;;3.47;1.30;;;22.50;73.40;;;;;;5004468;28;20037;-72
2023/08/21 08:36:10;;;;;;;3.55;1.38;;;22.50;73.20;;;;;;5008766;28;20132;-71
2023/08/21 08:38:40;;;;;;;2.80;1.33;;;22.60;73.20;;;;;;5008311;28;20520;-70
2023/08/21 08:41:25;;;;;;;3.10;1.20;;;22.70;73.10;;;;;;5008124;28;20080;-70
2023/08/21 08:43:54;;;;;;;2.88;1.40;;;22.80;72.80;;;;;;5005038;28;20489;-70
2023/08/21 08:46:21;;;;;;;3.72;1.42;;;22.90;72.80;;;;;;5013177;28;20033;-70
2023/08/21 08:48:48;;;;;;;1.92;1.05;;;23.00;72.80;;;;;;5005769;28;20038;-70
2023/08/21 08:51:14;;;;;;;2.67;1.13;;;23.10;72.70;;;;;;5008165;28;20478;-70
2023/08/21 08:53:42;;;;;;;3.42;1.15;;;23.10;72.30;;;;;;5008846;28;20041;-69
2023/08/21 08:56:08;;;;;;;6.28;1.98;;;23.20;72.20;;;;;;5003868;28;20478;-69
2023/08/21 08:58:35;;;;;;;4.22;1.33;;;23.40;72.20;;;;;;5008283;28;20045;-70
2023/08/21 09:01:01;;;;;;;2.92;0.80;;;23.50;72.50;;;;;;5012281;28;20136;-70
2023/08/21 09:03:29;;;;;;;3.85;1.10;;;23.70;71.90;;;;;;5013763;28;20033;-71
2023/08/21 09:05:59;;;;;;;2.90;1.25;;;23.80;71.60;;;;;;5014256;28;20029;-71
2023/08/21 09:08:29;;;;;;;2.22;0.90;;;24.00;71.50;;;;;;5009668;28;20129;-72
2023/08/21 09:11:00;;;;;;;3.65;1.08;;;24.10;71.20;;;;;;5017176;28;20034;-70
2023/08/21 09:13:27;;;;;;;1.77;1.23;;;24.30;71.10;;;;;;5013457;28;20033;-70
2023/08/21 09:15:55;;;;;;;3.28;1.20;;;24.40;70.80;;;;;;5006922;28;20442;-70
2023/08/21 09:18:21;;;;;;;3.85;1.35;;;24.60;70.60;;;;;;5015139;28;20026;-69
2023/08/21 09:20:48;;;;;;;2.08;1.00;;;24.70;70.30;;;;;;5014468;28;20048;-69
2023/08/21 09:23:18;;;;;;;4.38;1.55;;;24.80;70.00;;;;;;5008837;28;20607;-71
2023/08/21 09:25:47;;;;;;;2.70;1.27;;;24.90;69.70;;;;;;5004261;28;20038;-69
2023/08/21 09:28:18;;;;;;;2.28;1.10;;;25.00;69.70;;;;;;5013231;28;20389;-70
2023/08/21 09:30:52;;;;;;;6.00;1.47;;;25.00;69.40;;;;;;5018702;28;20033;-69
2023/08/21 09:33:21;;;;;;;3.78;0.88;;;25.10;69.30;;;;;;5018013;28;20043;-69
2023/08/21 09:35:54;;;;;;;2.08;1.13;;;25.10;69.20;;;;;;5014337;28;20112;-69
2023/08/21 09:38:46;;;;;;;3.45;0.98;;;25.10;69.00;;;;;;4990886;28;20141;-70
2023/08/21 09:41:20;;;;;;;3.13;1.40;;;25.20;68.80;;;;;;5013350;28;20145;-69
2023/08/21 09:43:47;;;;;;;2.72;1.10;;;25.20;68.50;;;;;;5010609;28;20220;-69
2023/08/21 09:46:23;;;;;;;2.10;0.80;;;25.30;68.30;;;;;;5011498;28;20022;-71
2023/08/21 09:48:52;;;;;;;1.48;0.77;;;25.40;67.90;;;;;;5013169;28;20100;-70
2023/08/21 09:51:18;;;;;;;2.00;0.80;;;25.60;67.80;;;;;;5008755;28;20050;-69
2023/08/21 09:53:49;;;;;;;2.55;0.95;;;25.60;67.60;;;;;;5010802;28;20036;-70
2023/08/21 09:56:18;;;;;;;6.43;1.52;;;25.70;67.50;;;;;;5020170;28;20043;-70
2023/08/21 09:58:47;;;;;;;1.88;0.85;;;25.70;67.80;;;;;;5006965;28;20068;-69
2023/08/21 10:01:16;;;;;;;2.53;0.98;;;25.70;67.20;;;;;;5018003;28;20033;-70
2023/08/21 10:03:47;;;;;;;1.45;0.93;;;25.70;67.10;;;;;;5010835;28;20042;-69
2023/08/21 10:06:20;;;;;;;4.03;0.93;;;25.80;67.10;;;;;;5019673;28;20356;-70
2023/08/21 10:08:53;;;;;;;2.33;0.98;;;25.80;67.00;;;;;;5017490;28;20072;-69
2023/08/21 10:11:21;;;;;;;2.95;1.20;;;25.70;66.70;;;;;;5012309;28;20064;-69
2023/08/21 10:13:50;;;;;;;2.65;1.30;;;25.70;66.70;;;;;;5002939;28;20553;-69
2023/08/21 10:16:17;;;;;;;1.63;0.95;;;25.70;66.70;;;;;;5007784;28;20049;-70
2023/08/21 10:18:45;;;;;;;1.65;0.60;;;25.70;66.70;;;;;;5006721;28;20042;-69
2023/08/21 10:21:16;;;;;;;5.32;0.90;;;25.70;66.50;;;;;;5008267;28;20055;-72
2023/08/21 10:23:48;;;;;;;2.95;0.82;;;25.80;66.40;;;;;;5011859;28;20049;-69
2023/08/21 10:26:15;;;;;;;1.73;0.80;;;25.80;66.20;;;;;;5013835;28;20111;-69
2023/08/21 10:29:06;;;;;;;1.73;1.15;;;25.80;66.00;;;;;;5008158;28;20029;-70
2023/08/21 10:31:34;;;;;;;1.75;0.93;;;25.90;65.70;;;;;;5006903;28;20068;-69
2023/08/21 10:34:12;;;;;;;1.83;1.15;;;25.90;65.70;;;;;;5018023;28;20446;-70
2023/08/21 10:36:45;;;;;;;3.92;0.82;;;26.00;65.50;;;;;;5015899;28;20053;-70
2023/08/21 10:39:18;;;;;;;0.85;0.68;;;26.10;65.10;;;;;;5015495;28;20056;-70
2023/08/21 10:42:15;;;;;;;3.67;1.10;;;26.20;65.00;;;;;;5010545;28;20195;-70
2023/08/21 10:44:58;;;;;;;2.40;1.00;;;26.30;64.80;;;;;;5014012;28;20608;-70
2023/08/21 10:47:28;;;;;;;1.98;0.80;;;26.40;64.90;;;;;;5011263;28;20481;-72
2023/08/21 10:49:56;;;;;;;4.43;0.70;;;26.30;64.80;;;;;;5004764;28;20057;-69
2023/08/21 10:52:36;;;;;;;2.28;1.05;;;26.40;64.70;;;;;;5012452;28;20551;-70
2023/08/21 10:55:04;;;;;;;2.65;1.38;;;26.50;64.30;;;;;;5007781;28;20029;-71
2023/08/21 10:57:33;;;;;;;2.17;1.30;;;26.50;64.20;;;;;;5012459;28;20041;-70
2023/08/21 11:00:09;;;;;;;4.15;1.27;;;26.60;64.00;;;;;;5011424;28;20469;-71
2023/08/21 11:02:37;;;;;;;1.40;0.80;;;26.70;63.80;;;;;;5006653;28;20088;-69
2023/08/21 11:05:04;;;;;;;3.05;1.33;;;26.80;63.60;;;;;;5013551;28;20253;-69
2023/08/21 11:07:43;;;;;;;2.25;0.90;;;27.00;63.50;;;;;;5006273;28;20041;-70
2023/08/21 11:10:13;;;;;;;1.65;0.75;;;27.10;63.20;;;;;;5005891;28;20454;-70
2023/08/21 11:12:49;;;;;;;1.63;0.82;;;27.20;63.00;;;;;;5016963;28;20043;-69
2023/08/21 11:15:17;;;;;;;2.03;0.77;;;27.40;62.80;;;;;;5014759;28;20416;-70
2023/08/21 11:17:58;;;;;;;2.47;0.65;;;27.50;62.60;;;;;;5013891;28;20064;-69
2023/08/21 11:20:35;;;;;;;2.33;0.88;;;27.60;62.20;;;;;;5012305;28;20036;-70
2023/08/21 11:23:07;;;;;;;3.80;1.30;;;27.80;62.10;;;;;;5011531;28;20494;-71
2023/08/21 11:25:37;;;;;;;2.35;1.17;;;27.90;61.90;;;;;;5010093;28;20041;-70
2023/08/21 11:28:07;;;;;;;;;;;28.00;61.70;;;;;;5013195;28;20037;-69
2023/08/21 11:30:34;;;;;;;1.35;0.70;;;28.10;61.60;;;;;;5009649;28;19957;-70
2023/08/21 11:33:06;;;;;;;1.08;0.82;;;28.30;61.60;;;;;;5009409;28;20559;-70
2023/08/21 11:35:33;;;;;;;2.20;1.13;;;28.40;61.30;;;;;;5009206;28;20056;-69
2023/08/21 11:37:59;;;;;;;2.00;1.33;;;28.50;61.20;;;;;;5004490;28;20209;-71
2023/08/21 11:40:26;;;;;;;3.15;1.23;;;28.60;60.90;;;;;;5011084;28;20563;-70
2023/08/21 11:42:59;;;;;;;3.40;1.40;;;28.70;60.70;;;;;;5005426;28;20656;-70
2023/08/21 11:45:25;;;;;;;2.70;0.93;;;28.70;60.30;;;;;;5016940;28;20033;-70
2023/08/21 11:47:56;;;;;;;2.13;1.17;;;28.70;60.10;;;;;;5018846;28;20120;-70
2023/08/21 11:50:22;;;;;;;2.30;1.30;;;28.70;59.90;;;;;;5015874;28;20405;-72
2023/08/21 11:52:52;;;;;;;3.47;1.20;;;28.70;59.80;;;;;;5016669;28;20045;-70
2023/08/21 11:55:18;;;;;;;3.50;1.40;;;28.70;59.60;;;;;;5011385;28;20037;-70
2023/08/21 11:57:49;;;;;;;2.97;1.17;;;28.70;59.60;;;;;;5012417;28;21192;-69
2023/08/21 12:00:25;;;;;;;2.78;1.30;;;28.70;59.40;;;;;;5010751;28;20111;-70
2023/08/21 12:02:56;;;;;;;5.72;1.40;;;28.70;59.50;;;;;;5006715;28;20034;-70
2023/08/21 12:05:23;;;;;;;2.03;1.27;;;28.70;59.30;;;;;;5012710;28;20072;-69
2023/08/21 12:07:50;;;;;;;4.00;1.40;;;28.70;59.40;;;;;;5007914;28;20021;-69
2023/08/21 12:10:27;;;;;;;2.25;1.10;;;28.80;59.30;;;;;;5007312;28;20585;-70
2023/08/21 12:12:54;;;;;;;2.17;0.90;;;28.90;58.90;;;;;;5003317;28;20036;-70
2023/08/21 12:15:21;;;;;;;2.20;1.50;;;29.00;58.80;;;;;;5008832;28;20025;-70
2023/08/21 12:17:47;;;;;;;3.85;1.45;;;29.10;58.50;;;;;;5010130;28;20025;-70
2023/08/21 12:20:14;;;;;;;1.92;1.05;;;29.20;58.40;;;;;;5011500;28;20163;-70
2023/08/21 12:22:43;;;;;;;2.28;1.08;;;29.40;58.40;;;;;;5012844;28;20041;-69
2023/08/21 12:25:11;;;;;;;2.13;0.90;;;29.70;58.10;;;;;;5005416;28;20168;-70
2023/08/21 12:27:37;;;;;;;3.03;0.85;;;29.90;57.60;;;;;;5010945;28;20036;-71
2023/08/21 12:30:05;;;;;;;1.83;0.98;;;30.10;57.30;;;;;;5016583;28;20056;-70
2023/08/21 12:32:32;;;;;;;3.03;0.77;;;30.20;57.10;;;;;;5015705;28;20045;-70
2023/08/21 12:34:59;;;;;;;4.35;1.65;;;30.40;57.00;;;;;;5007943;28;20137;-71
2023/08/21 12:37:26;;;;;;;2.28;0.60;;;30.50;56.70;;;;;;5007520;28;20149;-72
2023/08/21 12:39:53;;;;;;;3.47;1.23;;;30.70;56.60;;;;;;5011154;28;20137;-71
2023/08/21 12:42:19;;;;;;;1.77;1.17;;;30.70;56.30;;;;;;5009339;28;20030;-70
2023/08/21 12:44:46;;;;;;;1.90;0.90;;;30.70;56.10;;;;;;5021728;28;21159;-70
2023/08/21 12:47:12;;;;;;;1.58;0.85;;;30.70;56.00;;;;;;5018516;28;20033;-69
2023/08/21 12:49:39;;;;;;;2.17;0.80;;;30.60;55.90;;;;;;5009763;28;20057;-72
2023/08/21 12:52:06;;;;;;;1.58;0.80;;;30.60;55.90;;;;;;5014726;28;20832;-71